sensor_id;sensor_type;location;lat;lon;timestamp;P1;durP1;ratioP1;P2;durP2;ratioP2
63217;SDS011;49314;48.278;16.378;2023-02-11T00:02:01;46.72;;;42.90;;
63217;SDS011;49314;48.278;16.378;2023-02-11T00:04:28;47.58;;;43.55;;
63217;SDS011;49314;48.278;16.378;2023-02-11T00:06:54;46.20;;;42.70;;
63217;SDS011;49314;48.278;16.378;2023-02-11T00:09:19;49.35;;;45.53;;
63217;SDS011;49314;48.278;16.378;2023-02-11T00:11:44;46.63;;;42.88;;
63217;SDS011;49314;48.278;16.378;2023-02-11T00:14:09;46.28;;;42.53;;
63217;SDS011;49314;48.278;16.378;2023-02-11T00:16:35;46.58;;;42.80;;
63217;SDS011;49314;48.278;16.378;2023-02-11T00:19:01;48.58;;;44.20;;
63217;SDS011;49314;48.278;16.378;2023-02-11T00:21:26;48.55;;;44.80;;
63217;SDS011;49314;48.278;16.378;2023-02-11T00:23:52;46.67;;;42.85;;
63217;SDS011;49314;48.278;16.378;2023-02-11T00:26:18;48.17;;;44.03;;
63217;SDS011;49314;48.278;16.378;2023-02-11T00:28:44;47.35;;;43.50;;
63217;SDS011;49314;48.278;16.378;2023-02-11T00:31:10;46.45;;;42.85;;
63217;SDS011;49314;48.278;16.378;2023-02-11T00:33:35;47.72;;;43.90;;
63217;SDS011;49314;48.278;16.378;2023-02-11T00:36:04;47.95;;;43.95;;
63217;SDS011;49314;48.278;16.378;2023-02-11T00:38:29;46.15;;;42.38;;
63217;SDS011;49314;48.278;16.378;2023-02-11T00:40:54;46.40;;;42.20;;
63217;SDS011;49314;48.278;16.378;2023-02-11T00:43:20;48.00;;;43.90;;
63217;SDS011;49314;48.278;16.378;2023-02-11T00:45:45;49.33;;;45.42;;
63217;SDS011;49314;48.278;16.378;2023-02-11T00:48:10;49.60;;;45.35;;
63217;SDS011;49314;48.278;16.378;2023-02-11T00:50:35;48.85;;;44.72;;
63217;SDS011;49314;48.278;16.378;2023-02-11T00:53:01;50.28;;;45.97;;
63217;SDS011;49314;48.278;16.378;2023-02-11T00:55:26;46.53;;;42.63;;
63217;SDS011;49314;48.278;16.378;2023-02-11T00:57:51;49.30;;;45.33;;
63217;SDS011;49314;48.278;16.378;2023-02-11T01:00:16;47.92;;;43.97;;
63217;SDS011;49314;48.278;16.378;2023-02-11T01:02:42;50.15;;;45.53;;
63217;SDS011;49314;48.278;16.378;2023-02-11T01:05:07;48.92;;;44.67;;
63217;SDS011;49314;48.278;16.378;2023-02-11T01:07:32;47.78;;;43.60;;
63217;SDS011;49314;48.278;16.378;2023-02-11T01:09:57;49.78;;;45.67;;
63217;SDS011;49314;48.278;16.378;2023-02-11T01:12:23;51.38;;;47.08;;
63217;SDS011;49314;48.278;16.378;2023-02-11T01:14:48;50.42;;;45.92;;
63217;SDS011;49314;48.278;16.378;2023-02-11T01:17:13;47.70;;;43.45;;
63217;SDS011;49314;48.278;16.378;2023-02-11T01:19:39;44.75;;;40.95;;
63217;SDS011;49314;48.278;16.378;2023-02-11T01:22:04;49.17;;;45.20;;
63217;SDS011;49314;48.278;16.378;2023-02-11T01:24:29;48.47;;;44.30;;
63217;SDS011;49314;48.278;16.378;2023-02-11T01:26:54;47.08;;;43.33;;
63217;SDS011;49314;48.278;16.378;2023-02-11T01:29:20;47.17;;;43.30;;
63217;SDS011;49314;48.278;16.378;2023-02-11T01:31:45;50.03;;;45.80;;
63217;SDS011;49314;48.278;16.378;2023-02-11T01:34:10;50.25;;;46.28;;
63217;SDS011;49314;48.278;16.378;2023-02-11T01:36:35;50.58;;;46.05;;
63217;SDS011;49314;48.278;16.378;2023-02-11T01:39:01;49.50;;;45.08;;
63217;SDS011;49314;48.278;16.378;2023-02-11T01:41:26;50.88;;;46.75;;
63217;SDS011;49314;48.278;16.378;2023-02-11T01:43:51;50.95;;;46.75;;
63217;SDS011;49314;48.278;16.378;2023-02-11T01:48:52;48.83;;;44.83;;
63217;SDS011;49314;48.278;16.378;2023-02-11T01:51:26;50.15;;;46.40;;
63217;SDS011;49314;48.278;16.378;2023-02-11T01:53:53;53.50;;;49.15;;
63217;SDS011;49314;48.278;16.378;2023-02-11T01:56:38;49.90;;;45.42;;
63217;SDS011;49314;48.278;16.378;2023-02-11T02:00:00;49.80;;;45.38;;
63217;SDS011;49314;48.278;16.378;2023-02-11T02:02:18;52.17;;;47.92;;
63217;SDS011;49314;48.278;16.378;2023-02-11T02:05:27;48.60;;;44.75;;
63217;SDS011;49314;48.278;16.378;2023-02-11T02:07:33;53.00;;;48.33;;
63217;SDS011;49314;48.278;16.378;2023-02-11T02:10:02;53.35;;;48.72;;
63217;SDS011;49314;48.278;16.378;2023-02-11T02:12:28;52.35;;;47.83;;
63217;SDS011;49314;48.278;16.378;2023-02-11T02:15:10;54.58;;;49.92;;
63217;SDS011;49314;48.278;16.378;2023-02-11T02:17:40;50.20;;;45.90;;
63217;SDS011;49314;48.278;16.378;2023-02-11T02:20:10;50.00;;;45.63;;
63217;SDS011;49314;48.278;16.378;2023-02-11T02:22:46;52.90;;;47.92;;
63217;SDS011;49314;48.278;16.378;2023-02-11T02:27:54;51.30;;;47.28;;
63217;SDS011;49314;48.278;16.378;2023-02-11T02:38:11;55.53;;;50.42;;
63217;SDS011;49314;48.278;16.378;2023-02-11T02:40:44;54.05;;;49.47;;
63217;SDS011;49314;48.278;16.378;2023-02-11T02:43:10;54.42;;;49.63;;
63217;SDS011;49314;48.278;16.378;2023-02-11T02:45:37;53.03;;;48.38;;
63217;SDS011;49314;48.278;16.378;2023-02-11T02:48:02;52.63;;;48.15;;
63217;SDS011;49314;48.278;16.378;2023-02-11T02:50:29;53.00;;;48.47;;
63217;SDS011;49314;48.278;16.378;2023-02-11T02:55:44;53.70;;;49.13;;
63217;SDS011;49314;48.278;16.378;2023-02-11T03:00:52;51.78;;;47.30;;
63217;SDS011;49314;48.278;16.378;2023-02-11T03:05:52;48.38;;;43.80;;
63217;SDS011;49314;48.278;16.378;2023-02-11T03:11:00;52.83;;;47.88;;
63217;SDS011;49314;48.278;16.378;2023-02-11T03:13:27;54.78;;;49.90;;
63217;SDS011;49314;48.278;16.378;2023-02-11T03:15:54;56.08;;;51.08;;
63217;SDS011;49314;48.278;16.378;2023-02-11T03:18:21;56.28;;;51.20;;
63217;SDS011;49314;48.278;16.378;2023-02-11T03:20:49;53.50;;;48.78;;
63217;SDS011;49314;48.278;16.378;2023-02-11T03:36:10;59.33;;;54.13;;
63217;SDS011;49314;48.278;16.378;2023-02-11T03:38:41;53.03;;;48.13;;
63217;SDS011;49314;48.278;16.378;2023-02-11T03:41:09;55.55;;;50.05;;
63217;SDS011;49314;48.278;16.378;2023-02-11T03:43:43;61.58;;;55.25;;
63217;SDS011;49314;48.278;16.378;2023-02-11T03:46:10;66.50;;;60.00;;
63217;SDS011;49314;48.278;16.378;2023-02-11T03:48:49;59.85;;;54.17;;
63217;SDS011;49314;48.278;16.378;2023-02-11T03:51:15;62.72;;;56.75;;
63217;SDS011;49314;48.278;16.378;2023-02-11T03:53:42;59.80;;;54.03;;
63217;SDS011;49314;48.278;16.378;2023-02-11T03:56:09;58.22;;;52.55;;
63217;SDS011;49314;48.278;16.378;2023-02-11T03:58:37;59.20;;;53.92;;
63217;SDS011;49314;48.278;16.378;2023-02-11T04:01:02;54.85;;;50.00;;
63217;SDS011;49314;48.278;16.378;2023-02-11T04:03:29;53.25;;;48.60;;
63217;SDS011;49314;48.278;16.378;2023-02-11T04:05:55;51.70;;;47.42;;
63217;SDS011;49314;48.278;16.378;2023-02-11T04:08:20;50.65;;;46.15;;
63217;SDS011;49314;48.278;16.378;2023-02-11T04:10:46;52.45;;;47.58;;
63217;SDS011;49314;48.278;16.378;2023-02-11T04:13:11;56.15;;;51.28;;
63217;SDS011;49314;48.278;16.378;2023-02-11T04:15:36;50.78;;;46.53;;
63217;SDS011;49314;48.278;16.378;2023-02-11T04:18:02;53.35;;;48.85;;
63217;SDS011;49314;48.278;16.378;2023-02-11T04:20:27;53.15;;;48.20;;
63217;SDS011;49314;48.278;16.378;2023-02-11T04:22:52;53.03;;;48.25;;
63217;SDS011;49314;48.278;16.378;2023-02-11T04:25:18;53.10;;;48.25;;
63217;SDS011;49314;48.278;16.378;2023-02-11T04:27:43;56.38;;;51.08;;
63217;SDS011;49314;48.278;16.378;2023-02-11T04:30:08;53.95;;;49.03;;
63217;SDS011;49314;48.278;16.378;2023-02-11T04:32:34;55.70;;;50.75;;
63217;SDS011;49314;48.278;16.378;2023-02-11T04:34:59;54.15;;;49.42;;
63217;SDS011;49314;48.278;16.378;2023-02-11T04:37:24;49.63;;;45.20;;
63217;SDS011;49314;48.278;16.378;2023-02-11T04:39:49;54.38;;;49.47;;
63217;SDS011;49314;48.278;16.378;2023-02-11T04:42:15;63.42;;;57.28;;
63217;SDS011;49314;48.278;16.378;2023-02-11T04:44:40;57.65;;;52.03;;
63217;SDS011;49314;48.278;16.378;2023-02-11T04:47:05;56.25;;;51.30;;
63217;SDS011;49314;48.278;16.378;2023-02-11T04:49:30;54.67;;;49.80;;
63217;SDS011;49314;48.278;16.378;2023-02-11T04:51:56;59.97;;;54.40;;
63217;SDS011;49314;48.278;16.378;2023-02-11T04:54:21;64.05;;;57.67;;
63217;SDS011;49314;48.278;16.378;2023-02-11T04:56:46;64.30;;;57.60;;
63217;SDS011;49314;48.278;16.378;2023-02-11T04:59:12;62.13;;;55.65;;
63217;SDS011;49314;48.278;16.378;2023-02-11T05:01:37;57.88;;;52.58;;
63217;SDS011;49314;48.278;16.378;2023-02-11T05:04:03;55.38;;;50.13;;
63217;SDS011;49314;48.278;16.378;2023-02-11T05:06:28;71.53;;;63.47;;
63217;SDS011;49314;48.278;16.378;2023-02-11T05:08:53;53.92;;;49.10;;
63217;SDS011;49314;48.278;16.378;2023-02-11T05:11:19;53.45;;;48.70;;
63217;SDS011;49314;48.278;16.378;2023-02-11T05:13:45;54.55;;;49.55;;
63217;SDS011;49314;48.278;16.378;2023-02-11T05:16:11;53.33;;;48.83;;
63217;SDS011;49314;48.278;16.378;2023-02-11T05:18:37;55.38;;;50.22;;
63217;SDS011;49314;48.278;16.378;2023-02-11T05:21:06;55.38;;;50.35;;
63217;SDS011;49314;48.278;16.378;2023-02-11T05:23:32;55.78;;;51.03;;
63217;SDS011;49314;48.278;16.378;2023-02-11T05:25:58;49.03;;;44.47;;
63217;SDS011;49314;48.278;16.378;2023-02-11T05:28:23;51.10;;;46.33;;
63217;SDS011;49314;48.278;16.378;2023-02-11T05:30:48;50.97;;;46.42;;
63217;SDS011;49314;48.278;16.378;2023-02-11T05:33:14;56.40;;;51.17;;
63217;SDS011;49314;48.278;16.378;2023-02-11T05:35:39;54.22;;;49.88;;
63217;SDS011;49314;48.278;16.378;2023-02-11T05:38:04;55.15;;;50.03;;
63217;SDS011;49314;48.278;16.378;2023-02-11T05:40:29;45.92;;;42.17;;
63217;SDS011;49314;48.278;16.378;2023-02-11T05:42:54;53.15;;;48.83;;
63217;SDS011;49314;48.278;16.378;2023-02-11T05:45:20;50.35;;;45.95;;
63217;SDS011;49314;48.278;16.378;2023-02-11T05:47:45;43.75;;;40.33;;
63217;SDS011;49314;48.278;16.378;2023-02-11T05:50:10;53.90;;;49.08;;
63217;SDS011;49314;48.278;16.378;2023-02-11T05:52:35;51.85;;;47.28;;
63217;SDS011;49314;48.278;16.378;2023-02-11T05:55:00;52.00;;;47.17;;
63217;SDS011;49314;48.278;16.378;2023-02-11T05:57:26;57.03;;;51.80;;
63217;SDS011;49314;48.278;16.378;2023-02-11T05:59:51;45.58;;;41.33;;
63217;SDS011;49314;48.278;16.378;2023-02-11T06:02:16;52.10;;;47.50;;
63217;SDS011;49314;48.278;16.378;2023-02-11T06:04:41;53.00;;;48.33;;
63217;SDS011;49314;48.278;16.378;2023-02-11T06:07:08;52.40;;;47.65;;
63217;SDS011;49314;48.278;16.378;2023-02-11T06:09:33;50.40;;;45.85;;
63217;SDS011;49314;48.278;16.378;2023-02-11T06:11:58;49.83;;;44.80;;
63217;SDS011;49314;48.278;16.378;2023-02-11T06:14:23;52.47;;;47.45;;
63217;SDS011;49314;48.278;16.378;2023-02-11T06:16:49;51.65;;;47.15;;
63217;SDS011;49314;48.278;16.378;2023-02-11T06:19:14;48.25;;;43.78;;
63217;SDS011;49314;48.278;16.378;2023-02-11T06:21:39;49.15;;;44.63;;
63217;SDS011;49314;48.278;16.378;2023-02-11T06:24:04;48.70;;;44.20;;
63217;SDS011;49314;48.278;16.378;2023-02-11T06:26:30;46.47;;;42.40;;
63217;SDS011;49314;48.278;16.378;2023-02-11T06:28:55;52.85;;;47.95;;
63217;SDS011;49314;48.278;16.378;2023-02-11T06:31:23;50.58;;;46.05;;
63217;SDS011;49314;48.278;16.378;2023-02-11T06:33:48;50.33;;;45.70;;
63217;SDS011;49314;48.278;16.378;2023-02-11T06:36:16;47.30;;;43.35;;
63217;SDS011;49314;48.278;16.378;2023-02-11T06:38:42;48.83;;;44.78;;
63217;SDS011;49314;48.278;16.378;2023-02-11T06:41:11;49.75;;;45.45;;
63217;SDS011;49314;48.278;16.378;2023-02-11T06:43:36;49.47;;;45.28;;
63217;SDS011;49314;48.278;16.378;2023-02-11T06:46:01;52.55;;;48.15;;
63217;SDS011;49314;48.278;16.378;2023-02-11T06:48:26;50.95;;;46.30;;
63217;SDS011;49314;48.278;16.378;2023-02-11T06:50:52;51.97;;;47.42;;
63217;SDS011;49314;48.278;16.378;2023-02-11T06:53:17;44.00;;;39.92;;
63217;SDS011;49314;48.278;16.378;2023-02-11T06:55:42;45.88;;;41.90;;
63217;SDS011;49314;48.278;16.378;2023-02-11T06:58:07;52.30;;;47.72;;
63217;SDS011;49314;48.278;16.378;2023-02-11T07:00:33;53.75;;;48.90;;
63217;SDS011;49314;48.278;16.378;2023-02-11T07:02:58;53.50;;;48.67;;
63217;SDS011;49314;48.278;16.378;2023-02-11T07:05:23;48.55;;;44.60;;
63217;SDS011;49314;48.278;16.378;2023-02-11T07:07:48;49.92;;;45.80;;
63217;SDS011;49314;48.278;16.378;2023-02-11T07:10:13;45.47;;;41.10;;
63217;SDS011;49314;48.278;16.378;2023-02-11T07:12:39;49.35;;;45.25;;
63217;SDS011;49314;48.278;16.378;2023-02-11T07:15:04;50.47;;;46.08;;
63217;SDS011;49314;48.278;16.378;2023-02-11T07:17:30;46.97;;;42.88;;
63217;SDS011;49314;48.278;16.378;2023-02-11T07:19:55;50.50;;;46.45;;
63217;SDS011;49314;48.278;16.378;2023-02-11T07:22:20;53.63;;;49.38;;
63217;SDS011;49314;48.278;16.378;2023-02-11T07:24:46;50.25;;;46.05;;
63217;SDS011;49314;48.278;16.378;2023-02-11T07:27:11;50.03;;;45.85;;
63217;SDS011;49314;48.278;16.378;2023-02-11T07:29:36;52.50;;;48.13;;
63217;SDS011;49314;48.278;16.378;2023-02-11T07:32:01;48.00;;;44.08;;
63217;SDS011;49314;48.278;16.378;2023-02-11T07:34:27;45.78;;;42.10;;
63217;SDS011;49314;48.278;16.378;2023-02-11T07:36:52;37.05;;;31.85;;
63217;SDS011;49314;48.278;16.378;2023-02-11T07:39:17;58.95;;;53.25;;
63217;SDS011;49314;48.278;16.378;2023-02-11T07:41:45;42.92;;;38.70;;
63217;SDS011;49314;48.278;16.378;2023-02-11T07:44:13;42.10;;;38.03;;
63217;SDS011;49314;48.278;16.378;2023-02-11T07:46:38;48.58;;;44.45;;
63217;SDS011;49314;48.278;16.378;2023-02-11T07:49:07;42.25;;;38.45;;
63217;SDS011;49314;48.278;16.378;2023-02-11T07:51:32;42.33;;;38.80;;
63217;SDS011;49314;48.278;16.378;2023-02-11T07:53:58;61.53;;;55.20;;
63217;SDS011;49314;48.278;16.378;2023-02-11T07:56:23;47.13;;;42.70;;
63217;SDS011;49314;48.278;16.378;2023-02-11T07:58:49;52.10;;;47.65;;
63217;SDS011;49314;48.278;16.378;2023-02-11T08:01:21;48.55;;;44.75;;
63217;SDS011;49314;48.278;16.378;2023-02-11T08:03:48;36.28;;;32.75;;
63217;SDS011;49314;48.278;16.378;2023-02-11T08:06:15;36.13;;;32.63;;
63217;SDS011;49314;48.278;16.378;2023-02-11T08:08:41;35.05;;;31.60;;
63217;SDS011;49314;48.278;16.378;2023-02-11T08:11:07;44.85;;;41.15;;
63217;SDS011;49314;48.278;16.378;2023-02-11T08:13:32;33.25;;;30.13;;
63217;SDS011;49314;48.278;16.378;2023-02-11T08:15:58;42.10;;;38.92;;
63217;SDS011;49314;48.278;16.378;2023-02-11T08:18:23;38.63;;;35.33;;
63217;SDS011;49314;48.278;16.378;2023-02-11T08:20:48;44.35;;;40.88;;
63217;SDS011;49314;48.278;16.378;2023-02-11T08:23:13;42.97;;;39.75;;
63217;SDS011;49314;48.278;16.378;2023-02-11T08:25:38;41.55;;;38.35;;
63217;SDS011;49314;48.278;16.378;2023-02-11T08:28:04;60.22;;;54.88;;
63217;SDS011;49314;48.278;16.378;2023-02-11T08:30:29;41.03;;;37.88;;
63217;SDS011;49314;48.278;16.378;2023-02-11T08:32:54;39.17;;;35.97;;
63217;SDS011;49314;48.278;16.378;2023-02-11T08:35:20;40.78;;;37.78;;
63217;SDS011;49314;48.278;16.378;2023-02-11T08:37:48;43.55;;;40.33;;
63217;SDS011;49314;48.278;16.378;2023-02-11T08:40:13;42.00;;;38.80;;
63217;SDS011;49314;48.278;16.378;2023-02-11T08:42:38;42.08;;;38.80;;
63217;SDS011;49314;48.278;16.378;2023-02-11T08:45:03;30.58;;;27.52;;
63217;SDS011;49314;48.278;16.378;2023-02-11T08:47:29;33.70;;;30.75;;
63217;SDS011;49314;48.278;16.378;2023-02-11T08:49:55;38.15;;;34.78;;
63217;SDS011;49314;48.278;16.378;2023-02-11T08:52:20;36.58;;;33.42;;
63217;SDS011;49314;48.278;16.378;2023-02-11T08:54:45;44.72;;;41.17;;
63217;SDS011;49314;48.278;16.378;2023-02-11T08:57:11;37.70;;;34.75;;
63217;SDS011;49314;48.278;16.378;2023-02-11T08:59:36;27.70;;;24.92;;
63217;SDS011;49314;48.278;16.378;2023-02-11T09:02:03;38.90;;;35.83;;
63217;SDS011;49314;48.278;16.378;2023-02-11T09:04:29;42.30;;;38.92;;
63217;SDS011;49314;48.278;16.378;2023-02-11T09:06:54;33.78;;;30.92;;
63217;SDS011;49314;48.278;16.378;2023-02-11T09:09:19;34.42;;;31.23;;
63217;SDS011;49314;48.278;16.378;2023-02-11T09:11:45;35.20;;;31.95;;
63217;SDS011;49314;48.278;16.378;2023-02-11T09:14:17;35.53;;;32.30;;
63217;SDS011;49314;48.278;16.378;2023-02-11T09:16:43;24.90;;;22.17;;
63217;SDS011;49314;48.278;16.378;2023-02-11T09:19:08;32.90;;;29.95;;
63217;SDS011;49314;48.278;16.378;2023-02-11T09:21:34;36.58;;;33.03;;
63217;SDS011;49314;48.278;16.378;2023-02-11T09:23:59;33.88;;;30.50;;
63217;SDS011;49314;48.278;16.378;2023-02-11T09:26:25;28.30;;;25.67;;
63217;SDS011;49314;48.278;16.378;2023-02-11T09:28:51;30.58;;;27.70;;
63217;SDS011;49314;48.278;16.378;2023-02-11T09:31:18;37.35;;;33.95;;
63217;SDS011;49314;48.278;16.378;2023-02-11T09:33:44;32.55;;;29.33;;
63217;SDS011;49314;48.278;16.378;2023-02-11T09:36:35;30.15;;;27.02;;
63217;SDS011;49314;48.278;16.378;2023-02-11T09:38:59;45.40;;;41.28;;
63217;SDS011;49314;48.278;16.378;2023-02-11T09:43:56;65.95;;;40.78;;
63217;SDS011;49314;48.278;16.378;2023-02-11T09:46:22;35.95;;;32.60;;
63217;SDS011;49314;48.278;16.378;2023-02-11T09:48:48;26.90;;;24.15;;
63217;SDS011;49314;48.278;16.378;2023-02-11T09:51:18;24.92;;;22.13;;
63217;SDS011;49314;48.278;16.378;2023-02-11T09:53:44;36.30;;;32.85;;
63217;SDS011;49314;48.278;16.378;2023-02-11T09:56:13;37.47;;;34.05;;
63217;SDS011;49314;48.278;16.378;2023-02-11T09:58:40;22.65;;;20.15;;
63217;SDS011;49314;48.278;16.378;2023-02-11T10:06:43;29.73;;;26.75;;
63217;SDS011;49314;48.278;16.378;2023-02-11T10:17:14;27.93;;;25.43;;
63217;SDS011;49314;48.278;16.378;2023-02-11T10:19:34;23.98;;;21.42;;
63217;SDS011;49314;48.278;16.378;2023-02-11T10:22:17;32.53;;;29.67;;
63217;SDS011;49314;48.278;16.378;2023-02-11T10:24:53;32.80;;;29.65;;
63217;SDS011;49314;48.278;16.378;2023-02-11T10:27:20;22.33;;;20.08;;
63217;SDS011;49314;48.278;16.378;2023-02-11T10:29:50;25.38;;;23.27;;
63217;SDS011;49314;48.278;16.378;2023-02-11T10:32:26;27.73;;;25.23;;
63217;SDS011;49314;48.278;16.378;2023-02-11T10:34:55;22.33;;;20.17;;
63217;SDS011;49314;48.278;16.378;2023-02-11T10:37:22;26.88;;;24.58;;
63217;SDS011;49314;48.278;16.378;2023-02-11T10:39:47;29.45;;;26.63;;
63217;SDS011;49314;48.278;16.378;2023-02-11T10:42:13;25.48;;;20.83;;
63217;SDS011;49314;48.278;16.378;2023-02-11T10:44:40;30.17;;;27.48;;
63217;SDS011;49314;48.278;16.378;2023-02-11T10:47:11;23.67;;;17.58;;
63217;SDS011;49314;48.278;16.378;2023-02-11T10:49:39;22.13;;;19.85;;
63217;SDS011;49314;48.278;16.378;2023-02-11T10:52:21;28.85;;;26.42;;
63217;SDS011;49314;48.278;16.378;2023-02-11T10:57:21;29.58;;;23.05;;
63217;SDS011;49314;48.278;16.378;2023-02-11T10:59:49;28.27;;;25.33;;
63217;SDS011;49314;48.278;16.378;2023-02-11T11:02:23;28.63;;;26.08;;
63217;SDS011;49314;48.278;16.378;2023-02-11T11:04:49;23.42;;;21.23;;
63217;SDS011;49314;48.278;16.378;2023-02-11T11:09:49;24.65;;;22.35;;
63217;SDS011;49314;48.278;16.378;2023-02-11T11:12:31;26.98;;;24.77;;
63217;SDS011;49314;48.278;16.378;2023-02-11T11:14:58;22.52;;;20.25;;
63217;SDS011;49314;48.278;16.378;2023-02-11T11:17:23;29.83;;;27.08;;
63217;SDS011;49314;48.278;16.378;2023-02-11T11:19:53;29.63;;;27.08;;
63217;SDS011;49314;48.278;16.378;2023-02-11T11:22:21;23.40;;;21.15;;
63217;SDS011;49314;48.278;16.378;2023-02-11T11:24:47;27.58;;;24.35;;
63217;SDS011;49314;48.278;16.378;2023-02-11T11:27:18;27.42;;;25.10;;
63217;SDS011;49314;48.278;16.378;2023-02-11T11:29:46;24.60;;;21.48;;
63217;SDS011;49314;48.278;16.378;2023-02-11T11:32:19;25.52;;;23.15;;
63217;SDS011;49314;48.278;16.378;2023-02-11T11:34:49;23.83;;;21.48;;
63217;SDS011;49314;48.278;16.378;2023-02-11T11:42:35;23.95;;;21.58;;
63217;SDS011;49314;48.278;16.378;2023-02-11T11:45:23;23.52;;;21.42;;
63217;SDS011;49314;48.278;16.378;2023-02-11T11:47:47;23.65;;;21.20;;
63217;SDS011;49314;48.278;16.378;2023-02-11T11:55:26;49.42;;;39.58;;
63217;SDS011;49314;48.278;16.378;2023-02-11T11:57:53;21.35;;;19.25;;
63217;SDS011;49314;48.278;16.378;2023-02-11T12:07:58;22.90;;;20.73;;
63217;SDS011;49314;48.278;16.378;2023-02-11T12:10:37;23.60;;;21.45;;
63217;SDS011;49314;48.278;16.378;2023-02-11T12:28:38;19.40;;;17.63;;
63217;SDS011;49314;48.278;16.378;2023-02-11T12:31:08;17.88;;;16.08;;
63217;SDS011;49314;48.278;16.378;2023-02-11T12:36:31;18.10;;;16.35;;
63217;SDS011;49314;48.278;16.378;2023-02-11T12:41:57;17.95;;;15.77;;
63217;SDS011;49314;48.278;16.378;2023-02-11T12:45:04;24.98;;;22.63;;
63217;SDS011;49314;48.278;16.378;2023-02-11T12:52:38;25.00;;;22.50;;
63217;SDS011;49314;48.278;16.378;2023-02-11T12:55:13;21.73;;;19.48;;
63217;SDS011;49314;48.278;16.378;2023-02-11T12:57:40;27.67;;;20.48;;
63217;SDS011;49314;48.278;16.378;2023-02-11T13:00:15;31.35;;;24.60;;
63217;SDS011;49314;48.278;16.378;2023-02-11T13:02:51;30.48;;;27.38;;
63217;SDS011;49314;48.278;16.378;2023-02-11T13:05:24;21.52;;;16.42;;
63217;SDS011;49314;48.278;16.378;2023-02-11T13:07:51;19.95;;;17.92;;
63217;SDS011;49314;48.278;16.378;2023-02-11T13:10:29;26.90;;;24.50;;
63217;SDS011;49314;48.278;16.378;2023-02-11T13:12:56;28.65;;;26.13;;
63217;SDS011;49314;48.278;16.378;2023-02-11T13:15:41;22.42;;;19.70;;
63217;SDS011;49314;48.278;16.378;2023-02-11T13:25:39;23.58;;;21.10;;
63217;SDS011;49314;48.278;16.378;2023-02-11T13:30:38;23.88;;;21.60;;
63217;SDS011;49314;48.278;16.378;2023-02-11T13:33:20;22.90;;;18.80;;
63217;SDS011;49314;48.278;16.378;2023-02-11T13:38:26;23.83;;;21.55;;
63217;SDS011;49314;48.278;16.378;2023-02-11T13:41:03;25.77;;;23.02;;
63217;SDS011;49314;48.278;16.378;2023-02-11T13:43:28;23.00;;;19.25;;
63217;SDS011;49314;48.278;16.378;2023-02-11T13:46:12;21.90;;;19.63;;
63217;SDS011;49314;48.278;16.378;2023-02-11T13:48:44;21.00;;;18.08;;
63217;SDS011;49314;48.278;16.378;2023-02-11T13:51:11;19.90;;;17.80;;
63217;SDS011;49314;48.278;16.378;2023-02-11T13:53:50;21.38;;;19.13;;
63217;SDS011;49314;48.278;16.378;2023-02-11T13:56:27;23.15;;;19.92;;
63217;SDS011;49314;48.278;16.378;2023-02-11T13:58:53;22.58;;;20.17;;
63217;SDS011;49314;48.278;16.378;2023-02-11T14:04:17;23.30;;;20.83;;
63217;SDS011;49314;48.278;16.378;2023-02-11T14:13:16;22.95;;;20.85;;
63217;SDS011;49314;48.278;16.378;2023-02-11T14:15:44;21.73;;;19.63;;
63217;SDS011;49314;48.278;16.378;2023-02-11T14:20:53;22.50;;;20.63;;
63217;SDS011;49314;48.278;16.378;2023-02-11T14:23:33;27.05;;;24.58;;
63217;SDS011;49314;48.278;16.378;2023-02-11T14:28:47;24.98;;;22.98;;
63217;SDS011;49314;48.278;16.378;2023-02-11T14:31:20;19.45;;;16.85;;
63217;SDS011;49314;48.278;16.378;2023-02-11T14:36:41;25.10;;;22.98;;
63217;SDS011;49314;48.278;16.378;2023-02-11T14:39:25;24.23;;;22.50;;
63217;SDS011;49314;48.278;16.378;2023-02-11T14:41:52;27.73;;;25.05;;
63217;SDS011;49314;48.278;16.378;2023-02-11T14:44:18;17.40;;;15.77;;
63217;SDS011;49314;48.278;16.378;2023-02-11T14:46:45;20.65;;;18.88;;
63217;SDS011;49314;48.278;16.378;2023-02-11T14:49:13;24.70;;;22.65;;
63217;SDS011;49314;48.278;16.378;2023-02-11T14:51:42;25.70;;;23.73;;
63217;SDS011;49314;48.278;16.378;2023-02-11T14:54:17;23.77;;;21.92;;
63217;SDS011;49314;48.278;16.378;2023-02-11T14:56:44;22.75;;;20.73;;
63217;SDS011;49314;48.278;16.378;2023-02-11T14:59:17;16.88;;;15.15;;
63217;SDS011;49314;48.278;16.378;2023-02-11T15:01:45;19.65;;;17.90;;
63217;SDS011;49314;48.278;16.378;2023-02-11T15:04:26;23.77;;;21.85;;
63217;SDS011;49314;48.278;16.378;2023-02-11T15:06:51;21.58;;;19.95;;
63217;SDS011;49314;48.278;16.378;2023-02-11T15:11:43;20.45;;;18.58;;
63217;SDS011;49314;48.278;16.378;2023-02-11T15:16:41;26.63;;;24.63;;
63217;SDS011;49314;48.278;16.378;2023-02-11T15:19:10;26.23;;;24.40;;
63217;SDS011;49314;48.278;16.378;2023-02-11T15:21:40;20.63;;;18.85;;
63217;SDS011;49314;48.278;16.378;2023-02-11T15:29:25;22.05;;;20.42;;
63217;SDS011;49314;48.278;16.378;2023-02-11T15:34:35;22.63;;;21.02;;
63217;SDS011;49314;48.278;16.378;2023-02-11T15:37:01;28.38;;;26.13;;
63217;SDS011;49314;48.278;16.378;2023-02-11T15:39:31;22.83;;;20.90;;
63217;SDS011;49314;48.278;16.378;2023-02-11T15:41:56;17.25;;;15.75;;
63217;SDS011;49314;48.278;16.378;2023-02-11T15:44:39;26.55;;;24.30;;
63217;SDS011;49314;48.278;16.378;2023-02-11T15:47:08;28.23;;;25.98;;
63217;SDS011;49314;48.278;16.378;2023-02-11T15:49:33;23.33;;;21.23;;
63217;SDS011;49314;48.278;16.378;2023-02-11T15:52:01;29.05;;;26.80;;
63217;SDS011;49314;48.278;16.378;2023-02-11T15:54:27;30.65;;;28.67;;
63217;SDS011;49314;48.278;16.378;2023-02-11T15:56:59;37.78;;;34.65;;
63217;SDS011;49314;48.278;16.378;2023-02-11T15:59:27;34.25;;;31.33;;
63217;SDS011;49314;48.278;16.378;2023-02-11T16:01:54;36.15;;;33.10;;
63217;SDS011;49314;48.278;16.378;2023-02-11T16:04:23;24.13;;;21.95;;
63217;SDS011;49314;48.278;16.378;2023-02-11T16:06:49;35.65;;;33.42;;
63217;SDS011;49314;48.278;16.378;2023-02-11T16:16:53;34.05;;;31.80;;
63217;SDS011;49314;48.278;16.378;2023-02-11T16:19:20;23.50;;;21.63;;
63217;SDS011;49314;48.278;16.378;2023-02-11T16:21:46;22.45;;;20.48;;
63217;SDS011;49314;48.278;16.378;2023-02-11T16:24:20;26.42;;;24.27;;
63217;SDS011;49314;48.278;16.378;2023-02-11T16:26:46;34.92;;;32.60;;
63217;SDS011;49314;48.278;16.378;2023-02-11T16:29:16;28.27;;;26.33;;
63217;SDS011;49314;48.278;16.378;2023-02-11T16:31:42;42.78;;;39.65;;
63217;SDS011;49314;48.278;16.378;2023-02-11T16:34:26;28.67;;;26.52;;
63217;SDS011;49314;48.278;16.378;2023-02-11T16:36:51;27.42;;;25.17;;
63217;SDS011;49314;48.278;16.378;2023-02-11T16:39:17;28.40;;;26.42;;
63217;SDS011;49314;48.278;16.378;2023-02-11T16:41:45;26.70;;;24.48;;
63217;SDS011;49314;48.278;16.378;2023-02-11T16:44:10;28.30;;;26.05;;
63217;SDS011;49314;48.278;16.378;2023-02-11T16:46:36;29.13;;;26.70;;